Time,TemperatureF,DewpointF,PressureIn,WindDirection,WindDirectionDegrees,WindSpeedMPH,WindSpeedGustMPH,Humidity,HourlyPrecipIn,Conditions,Clouds,dailyrainin,SolarRadiationWatts/m^2,SoftwareType,DateUTC
2013-01-06 00:00:00,67.3,65.8,30.21,ENE,58,0.0,0.0,95,0.00,,CLR,0.00,0.00,VWS V14.01,2013-01-06 05:00:00,
2013-01-06 00:01:00,67.2,65.7,30.21,ENE,58,0.0,0.0,95,0.00,,CLR,0.00,0.00,VWS V14.01,2013-01-06 05:01:00,
2013-01-06 00:02:00,67.2,65.7,30.21,ENE,58,0.0,0.0,95,0.00,,CLR,0.00,0.00,VWS V14.01,2013-01-06 05:02:00,
2013-01-06 00:05:00,67.2,65.7,30.21,ENE,58,0.0,0.0,95,0.00,,OVC050,0.00,0.00,VWS V14.01,2013-01-06 05:05:00,
2013-01-06 00:07:00,67.2,65.7,30.20,ENE,58,0.0,0.0,95,0.00,,CLR,0.00,0.00,VWS V14.01,2013-01-06 05:07:00,
2013-01-06 00:10:00,67.1,65.6,30.20,ENE,58,0.0,0.0,95,0.00,,OVC050,0.00,0.00,VWS V14.01,2013-01-06 05:10:00,
2013-01-06 00:12:00,67.1,65.6,30.20,ENE,58,0.0,0.0,95,0.00,,CLR,0.00,0.00,VWS V14.01,2013-01-06 05:12:00,
2013-01-06 00:15:00,67.2,65.7,30.20,ENE,58,0.0,0.0,95,0.00,,OVC050,0.00,0.00,VWS V14.01,2013-01-06 05:15:00,
2013-01-06 00:17:00,67.1,65.6,30.20,ENE,58,0.0,0.0,95,0.00,,CLR,0.00,0.00,VWS V14.01,2013-01-06 05:17:00,
2013-01-06 00:20:00,67.2,65.7,30.20,ENE,58,0.0,0.0,95,0.00,,OVC050,0.00,0.00,VWS V14.01,2013-01-06 05:20:00,
2013-01-06 00:22:00,67.2,65.7,30.20,ENE,58,0.0,0.0,95,0.00,,CLR,0.00,0.00,VWS V14.01,2013-01-06 05:22:00,
2013-01-06 00:25:00,67.1,65.6,30.20,ENE,58,0.0,0.0,95,0.00,,OVC050,0.00,0.00,VWS V14.01,2013-01-06 05:25:00,
2013-01-06 00:27:00,67.0,65.5,30.20,ENE,58,0.0,0.0,95,0.00,,CLR,0.00,0.00,VWS V14.01,2013-01-06 05:27:00,
2013-01-06 00:30:00,66.9,65.4,30.20,ENE,58,0.0,0.0,95,0.00,,OVC050,0.00,0.00,VWS V14.01,2013-01-06 05:30:00,
2013-01-06 00:32:00,66.8,65.3,30.20,ENE,58,0.0,0.0,95,0.00,,CLR,0.00,0.00,VWS V14.01,2013-01-06 05:32:00,
2013-01-06 00:35:00,66.8,65.3,30.20,ENE,58,0.0,0.0,95,0.00,,OVC050,0.00,0.00,VWS V14.01,2013-01-06 05:35:00,
2013-01-06 00:37:00,66.8,65.3,30.20,ENE,58,0.0,0.0,95,0.00,,CLR,0.00,0.00,VWS V14.01,2013-01-06 05:37:00,
2013-01-06 00:40:00,66.8,65.3,30.20,ENE,58,0.0,0.0,95,0.00,,OVC050,0.00,0.00,VWS V14.01,2013-01-06 05:40:00,
2013-01-06 00:42:00,66.8,65.3,30.19,ENE,58,0.0,0.0,95,0.00,,CLR,0.00,0.00,VWS V14.01,2013-01-06 05:42:00,
2013-01-06 00:45:00,66.8,65.3,30.19,ENE,58,0.0,0.0,95,0.00,,OVC050,0.00,0.00,VWS V14.01,2013-01-06 05:45:00,
2013-01-06 00:47:00,66.8,65.3,30.19,ENE,58,0.0,0.0,95,0.00,,CLR,0.00,0.00,VWS V14.01,2013-01-06 05:47:00,
2013-01-06 00:50:00,66.8,65.3,30.19,ENE,58,0.0,0.0,95,0.00,,OVC050,0.00,0.00,VWS V14.01,2013-01-06 05:50:00,
2013-01-06 00:52:00,66.7,65.2,30.19,ENE,58,0.0,0.0,95,0.00,,CLR,0.00,0.00,VWS V14.01,2013-01-06 05:52:00,
2013-01-06 00:55:00,66.7,65.2,30.19,ENE,58,0.0,0.0,95,0.00,,OVC050,0.00,0.00,VWS V14.01,2013-01-06 05:55:00,
2013-01-06 00:57:00,66.7,65.2,30.19,ENE,58,0.0,0.0,95,0.00,,CLR,0.00,0.00,VWS V14.01,2013-01-06 05:57:00,
2013-01-06 01:00:00,66.7,65.2,30.19,ENE,58,0.0,0.0,95,0.00,,OVC050,0.00,0.00,VWS V14.01,2013-01-06 06:00:00,
2013-01-06 01:02:00,66.7,65.2,30.19,ENE,58,0.0,0.0,95,0.00,,CLR,0.00,0.00,VWS V14.01,2013-01-06 06:02:00,
2013-01-06 01:05:00,66.6,65.1,30.19,ENE,58,0.0,0.0,95,0.00,,OVC050,0.00,0.00,VWS V14.01,2013-01-06 06:05:00,
2013-01-06 01:07:00,66.6,65.1,30.19,ENE,58,0.0,0.0,95,0.00,,CLR,0.00,0.00,VWS V14.01,2013-01-06 06:07:00,
2013-01-06 01:10:00,66.6,65.1,30.19,ENE,58,0.0,0.0,95,0.00,,OVC050,0.00,0.00,VWS V14.01,2013-01-06 06:10:00,
2013-01-06 01:12:00,66.6,65.4,30.19,ENE,58,0.0,0.0,96,0.00,,CLR,0.00,0.00,VWS V14.01,2013-01-06 06:12:00,
2013-01-06 01:15:00,66.6,65.4,30.19,ENE,58,0.0,0.0,96,0.00,,OVC050,0.00,0.00,VWS V14.01,2013-01-06 06:15:00,
2013-01-06 01:17:00,66.5,65.3,30.18,ENE,58,0.0,0.0,96,0.00,,CLR,0.00,0.00,VWS V14.01,2013-01-06 06:17:00,
2013-01-06 01:20:00,66.5,65.3,30.18,ENE,58,0.0,0.0,96,0.00,,OVC050,0.00,0.00,VWS V14.01,2013-01-06 06:20:00,
2013-01-06 01:22:00,66.5,65.3,30.18,ENE,58,0.0,0.0,96,0.00,,CLR,0.00,0.00,VWS V14.01,2013-01-06 06:22:00,
2013-01-06 01:25:00,66.4,65.2,30.18,ENE,58,0.0,0.0,96,0.00,,OVC050,0.00,0.00,VWS V14.01,2013-01-06 06:25:00,
2013-01-06 01:27:00,66.4,65.2,30.18,ENE,58,0.0,0.0,96,0.00,,CLR,0.00,0.00,VWS V14.01,2013-01-06 06:27:00,
2013-01-06 01:30:00,66.4,65.2,30.18,ENE,58,0.0,0.0,96,0.00,,OVC050,0.00,0.00,VWS V14.01,2013-01-06 06:30:00,
2013-01-06 01:32:00,66.3,65.1,30.18,ENE,58,0.0,0.0,96,0.00,,CLR,0.00,0.00,VWS V14.01,2013-01-06 06:32:00,
2013-01-06 01:35:00,66.3,65.1,30.18,ENE,58,0.0,0.0,96,0.00,,OVC050,0.00,0.00,VWS V14.01,2013-01-06 06:35:00,
2013-01-06 01:37:00,66.3,65.1,30.18,ENE,58,0.0,0.0,96,0.00,,,0.00,0.00,VWS V14.01,2013-01-06 06:37:00,
2013-01-06 01:40:00,66.2,65.0,30.17,ENE,58,0.0,0.0,96,0.00,,OVC050,0.00,0.00,VWS V14.01,2013-01-06 06:40:00,
2013-01-06 01:42:00,66.3,65.1,30.17,ENE,58,0.0,0.0,96,0.00,,,0.00,0.00,VWS V14.01,2013-01-06 06:42:00,
2013-01-06 01:45:00,66.3,65.1,30.17,ENE,58,0.0,0.0,96,0.00,,OVC050,0.00,0.00,VWS V14.01,2013-01-06 06:45:00,
2013-01-06 01:47:00,66.3,65.1,30.17,ENE,58,0.0,0.0,96,0.00,,,0.00,0.00,VWS V14.01,2013-01-06 06:47:00,
2013-01-06 01:50:00,66.5,65.3,30.17,ENE,58,1.0,2.0,96,0.00,,OVC050,0.00,0.00,VWS V14.01,2013-01-06 06:50:00,
2013-01-06 01:52:00,66.7,65.5,30.17,ENE,58,1.0,2.0,96,0.00,,,0.00,0.00,VWS V14.01,2013-01-06 06:52:00,
2013-01-06 01:55:00,67.0,65.8,30.17,ENE,58,1.0,2.0,96,0.00,,OVC050,0.00,0.00,VWS V14.01,2013-01-06 06:55:00,
2013-01-06 01:57:00,67.0,65.8,30.17,ENE,58,0.0,2.0,96,0.00,,,0.00,0.00,VWS V14.01,2013-01-06 06:57:00,
2013-01-06 02:00:00,66.9,65.7,30.17,ENE,58,0.0,0.0,96,0.00,,OVC050,0.00,0.00,VWS V14.01,2013-01-06 07:00:00,
2013-01-06 02:02:00,66.8,65.6,30.17,ENE,58,0.0,0.0,96,0.00,,,0.00,0.00,VWS V14.01,2013-01-06 07:02:00,
2013-01-06 02:05:00,66.7,65.5,30.17,ENE,58,0.0,0.0,96,0.00,,OVC050,0.00,0.00,VWS V14.01,2013-01-06 07:05:00,
2013-01-06 02:07:00,66.7,65.5,30.17,ENE,58,0.0,0.0,96,0.00,,,0.00,0.00,VWS V14.01,2013-01-06 07:07:00,
2013-01-06 02:10:00,66.6,65.4,30.16,ENE,58,0.0,0.0,96,0.00,,OVC050,0.00,0.00,VWS V14.01,2013-01-06 07:10:00,
2013-01-06 02:12:00,66.5,65.3,30.16,ENE,58,0.0,0.0,96,0.00,,,0.00,0.00,VWS V14.01,2013-01-06 07:12:00,
2013-01-06 02:15:00,66.5,65.3,30.16,ENE,58,0.0,0.0,96,0.00,,OVC050,0.00,0.00,VWS V14.01,2013-01-06 07:15:00,
2013-01-06 02:17:00,66.5,65.3,30.16,ENE,58,0.0,0.0,96,0.00,,,0.00,0.00,VWS V14.01,2013-01-06 07:17:00,
2013-01-06 02:20:00,66.5,65.3,30.16,ENE,58,0.0,0.0,96,0.00,,OVC050,0.00,0.00,VWS V14.01,2013-01-06 07:20:00,
2013-01-06 02:22:00,66.5,65.3,30.16,ENE,58,0.0,0.0,96,0.00,,,0.00,0.00,VWS V14.01,2013-01-06 07:22:00,
2013-01-06 02:25:00,66.6,65.4,30.16,ENE,58,0.0,0.0,96,0.00,,OVC050,0.00,0.00,VWS V14.01,2013-01-06 07:25:00,
2013-01-06 02:27:00,66.7,65.5,30.16,ENE,58,0.0,0.0,96,0.00,,,0.00,0.00,VWS V14.01,2013-01-06 07:27:00,
2013-01-06 02:30:00,66.7,65.5,30.16,ENE,58,0.0,0.0,96,0.00,,OVC050,0.00,0.00,VWS V14.01,2013-01-06 07:30:00,
2013-01-06 02:32:00,66.7,65.5,30.16,ENE,58,0.0,0.0,96,0.00,,,0.00,0.00,VWS V14.01,2013-01-06 07:32:00,
2013-01-06 02:35:00,66.8,65.6,30.16,ENE,58,0.0,0.0,96,0.00,,OVC050,0.00,0.00,VWS V14.01,2013-01-06 07:35:00,
2013-01-06 02:37:00,67.0,65.8,30.16,ENE,58,0.0,0.0,96,0.00,,,0.00,0.00,VWS V14.01,2013-01-06 07:37:00,
2013-01-06 02:40:00,67.1,65.9,30.16,ENE,58,0.0,0.0,96,0.00,,OVC050,0.00,0.00,VWS V14.01,2013-01-06 07:40:00,
2013-01-06 02:41:00,67.2,66.0,30.16,ENE,58,0.0,0.0,96,0.00,,CLR,0.00,0.00,VWS V14.01,2013-01-06 07:41:00,
2013-01-06 02:45:00,67.3,66.1,30.16,ENE,58,0.0,0.0,96,0.00,,OVC050,0.00,0.00,VWS V14.01,2013-01-06 07:45:00,
2013-01-06 02:47:00,67.5,66.3,30.15,ENE,58,0.0,0.0,96,0.00,,CLR,0.00,0.00,VWS V14.01,2013-01-06 07:47:00,
2013-01-06 02:50:00,67.6,66.4,30.15,ENE,58,0.0,0.0,96,0.00,,OVC050,0.00,0.00,VWS V14.01,2013-01-06 07:50:00,
2013-01-06 02:52:00,67.6,66.4,30.16,SSE,151,1.0,3.0,96,0.00,,CLR,0.00,0.00,VWS V14.01,2013-01-06 07:52:00,
2013-01-06 02:55:00,67.9,67.0,30.15,SSE,165,1.0,3.0,97,0.00,,OVC050,0.00,0.00,VWS V14.01,2013-01-06 07:55:00,
2013-01-06 02:56:00,68.1,67.2,30.15,SSE,165,0.0,1.0,97,0.00,,CLR,0.00,0.00,VWS V14.01,2013-01-06 07:56:00,
2013-01-06 03:00:00,68.4,67.5,30.15,SSE,165,1.0,1.0,97,0.01,,OVC050,0.01,0.00,VWS V14.01,2013-01-06 08:00:00,
2013-01-06 03:02:00,68.6,67.7,30.15,SSE,165,0.0,0.0,97,0.01,,CLR,0.01,0.00,VWS V14.01,2013-01-06 08:02:00,
2013-01-06 03:05:00,68.9,68.0,30.15,SE,131,0.0,2.0,97,0.02,,OVC050,0.02,0.00,VWS V14.01,2013-01-06 08:05:00,
2013-01-06 03:07:00,69.0,68.1,30.15,SE,134,1.0,2.0,97,0.03,,CLR,0.03,0.00,VWS V14.01,2013-01-06 08:07:00,
2013-01-06 03:10:00,69.2,68.3,30.15,SE,134,0.0,0.0,97,0.03,,OVC050,0.03,0.00,VWS V14.01,2013-01-06 08:10:00,
2013-01-06 03:11:00,69.3,68.4,30.15,SE,134,0.0,0.0,97,0.03,,CLR,0.03,0.00,VWS V14.01,2013-01-06 08:11:00,
2013-01-06 03:15:00,69.4,68.5,30.15,SE,134,0.0,0.0,97,0.03,,OVC050,0.03,0.00,VWS V14.01,2013-01-06 08:15:00,
2013-01-06 03:16:00,69.4,68.5,30.15,SE,134,1.0,1.0,97,0.03,,CLR,0.03,0.00,VWS V14.01,2013-01-06 08:16:00,
2013-01-06 03:20:00,69.5,68.6,30.15,SE,134,0.0,0.0,97,0.03,,OVC050,0.03,0.00,VWS V14.01,2013-01-06 08:20:00,
2013-01-06 03:21:00,69.6,68.7,30.15,SE,134,0.0,0.0,97,0.03,,CLR,0.03,0.00,VWS V14.01,2013-01-06 08:21:00,
2013-01-06 03:25:00,69.7,68.8,30.15,SE,134,0.0,0.0,97,0.03,,OVC050,0.03,0.00,VWS V14.01,2013-01-06 08:25:00,
2013-01-06 03:26:00,69.7,68.8,30.15,SE,134,0.0,0.0,97,0.03,,CLR,0.03,0.00,VWS V14.01,2013-01-06 08:26:00,
2013-01-06 03:30:00,69.8,68.9,30.14,SE,134,0.0,0.0,97,0.03,,OVC050,0.03,0.00,VWS V14.01,2013-01-06 08:30:00,
2013-01-06 03:32:00,69.8,68.9,30.15,SE,134,0.0,0.0,97,0.04,,CLR,0.04,0.00,VWS V14.01,2013-01-06 08:32:00,
2013-01-06 03:35:00,69.9,69.0,30.14,SE,134,0.0,0.0,97,0.04,,OVC050,0.04,0.00,VWS V14.01,2013-01-06 08:35:00,
2013-01-06 03:36:00,69.9,69.0,30.14,SE,134,0.0,0.0,97,0.04,,CLR,0.04,0.00,VWS V14.01,2013-01-06 08:36:00,
2013-01-06 03:40:00,69.9,69.0,30.14,SE,134,0.0,0.0,97,0.04,,OVC050,0.04,0.00,VWS V14.01,2013-01-06 08:40:00,
2013-01-06 03:41:00,70.0,69.1,30.14,SE,134,1.0,1.0,97,0.04,,CLR,0.04,0.00,VWS V14.01,2013-01-06 08:41:00,
2013-01-06 03:45:00,70.0,68.8,30.14,SE,134,1.0,1.0,96,0.04,,OVC050,0.04,0.00,VWS V14.01,2013-01-06 08:45:00,
2013-01-06 03:46:00,70.1,68.9,30.14,SE,134,1.0,1.0,96,0.04,,CLR,0.04,0.00,VWS V14.01,2013-01-06 08:46:00,
2013-01-06 03:50:00,70.1,68.9,30.14,SE,134,0.0,1.0,96,0.04,,OVC050,0.04,0.00,VWS V14.01,2013-01-06 08:50:00,
2013-01-06 03:52:00,70.2,69.0,30.14,SE,134,0.0,1.0,96,0.04,,-RA,0.04,0.00,VWS V14.01,2013-01-06 08:52:00,
2013-01-06 03:55:00,70.2,69.0,30.14,SE,134,0.0,1.0,96,0.04,,OVC050,0.04,0.00,VWS V14.01,2013-01-06 08:55:00,
2013-01-06 03:56:00,70.2,69.0,30.14,SE,134,0.0,1.0,96,0.04,,-RA,0.04,0.00,VWS V14.01,2013-01-06 08:56:00,
2013-01-06 04:00:00,70.2,69.0,30.14,SE,134,0.0,1.0,96,0.04,,OVC050,0.04,0.00,VWS V14.01,2013-01-06 09:00:00,
2013-01-06 04:01:00,70.2,69.0,30.14,SE,134,0.0,1.0,96,0.03,,-RA,0.04,0.00,VWS V14.01,2013-01-06 09:01:00,
2013-01-06 04:05:00,70.3,69.4,30.14,SE,134,0.0,0.0,97,0.03,,OVC050,0.04,0.00,VWS V14.01,2013-01-06 09:05:00,
2013-01-06 04:06:00,70.3,69.4,30.14,SE,134,0.0,0.0,97,0.02,,-RA,0.04,0.00,VWS V14.01,2013-01-06 09:06:00,
2013-01-06 04:10:00,70.4,69.5,30.14,SE,134,2.0,2.0,97,0.02,,OVC050,0.04,0.00,VWS V14.01,2013-01-06 09:10:00,
2013-01-06 04:11:00,70.4,69.5,30.14,SE,134,0.0,1.0,97,0.01,,-RA,0.04,0.00,VWS V14.01,2013-01-06 09:11:00,
2013-01-06 04:15:00,70.4,69.5,30.14,SE,134,0.0,0.0,97,0.01,,OVC050,0.04,0.00,VWS V14.01,2013-01-06 09:15:00,
2013-01-06 04:16:00,70.4,69.5,30.14,SE,134,0.0,0.0,97,0.01,,-RA,0.04,0.00,VWS V14.01,2013-01-06 09:16:00,
2013-01-06 04:20:00,70.4,69.5,30.14,SE,134,0.0,0.0,97,0.01,,OVC050,0.04,0.00,VWS V14.01,2013-01-06 09:20:00,
2013-01-06 04:21:00,70.4,69.5,30.14,SE,134,0.0,0.0,97,0.01,,-RA,0.04,0.00,VWS V14.01,2013-01-06 09:21:00,
2013-01-06 04:25:00,70.4,69.5,30.14,SE,134,0.0,0.0,97,0.01,,OVC050,0.04,0.00,VWS V14.01,2013-01-06 09:25:00,
2013-01-06 04:26:00,70.4,69.5,30.14,SE,134,0.0,0.0,97,0.01,,-RA,0.04,0.00,VWS V14.01,2013-01-06 09:26:00,
2013-01-06 04:30:00,70.4,69.5,30.13,SE,134,0.0,0.0,97,0.01,,OVC050,0.04,0.00,VWS V14.01,2013-01-06 09:30:00,
2013-01-06 04:31:00,70.5,69.6,30.13,SE,134,0.0,0.0,97,0.01,,-RA,0.04,0.00,VWS V14.01,2013-01-06 09:31:00,
2013-01-06 04:35:00,70.5,69.6,30.13,SE,134,1.0,1.0,97,0.01,,OVC050,0.04,0.00,VWS V14.01,2013-01-06 09:35:00,
2013-01-06 04:36:00,70.5,69.6,30.13,SE,134,0.0,1.0,97,0.00,,-RA,0.04,0.00,VWS V14.01,2013-01-06 09:36:00,
2013-01-06 04:40:00,70.5,69.6,30.13,SE,134,1.0,2.0,97,0.00,,OVC050,0.04,0.00,VWS V14.01,2013-01-06 09:40:00,
2013-01-06 04:41:00,70.5,69.6,30.13,SE,134,1.0,1.0,97,0.00,,OVC055,0.04,0.00,VWS V14.01,2013-01-06 09:41:00,
2013-01-06 04:45:00,70.5,69.6,30.13,SE,134,0.0,1.0,97,0.00,,OVC050,0.04,0.00,VWS V14.01,2013-01-06 09:45:00,
2013-01-06 04:46:00,70.5,69.6,30.13,SE,134,0.0,1.0,97,0.00,,OVC055,0.04,0.00,VWS V14.01,2013-01-06 09:46:00,
2013-01-06 04:50:00,70.6,69.7,30.13,SE,134,0.0,0.0,97,0.00,,OVC050,0.04,0.00,VWS V14.01,2013-01-06 09:50:00,
2013-01-06 04:51:00,70.6,69.7,30.13,SE,134,1.0,1.0,97,0.00,,OVC055,0.04,0.00,VWS V14.01,2013-01-06 09:51:00,
2013-01-06 04:55:00,70.6,69.7,30.13,SE,134,0.0,1.0,97,0.00,,OVC050,0.04,0.00,VWS V14.01,2013-01-06 09:55:00,
2013-01-06 04:56:00,70.6,69.4,30.13,SE,134,0.0,0.0,96,0.00,,OVC055,0.04,0.00,VWS V14.01,2013-01-06 09:56:00,
2013-01-06 05:00:00,70.6,69.4,30.13,SE,134,0.0,0.0,96,0.00,,OVC050,0.04,0.00,VWS V14.01,2013-01-06 10:00:00,
2013-01-06 05:01:00,70.6,69.7,30.13,SE,134,1.0,1.0,97,0.00,,OVC055,0.04,0.00,VWS V14.01,2013-01-06 10:01:00,
2013-01-06 05:05:00,70.6,69.4,30.13,SE,134,1.0,1.0,96,0.00,,OVC050,0.04,0.00,VWS V14.01,2013-01-06 10:05:00,
2013-01-06 05:06:00,70.6,69.4,30.13,SE,134,0.0,1.0,96,0.00,,OVC055,0.04,0.00,VWS V14.01,2013-01-06 10:06:00,
2013-01-06 05:10:00,70.7,69.5,30.13,SE,134,1.0,1.0,96,0.00,,OVC050,0.04,0.00,VWS V14.01,2013-01-06 10:10:00,
2013-01-06 05:11:00,70.7,69.5,30.13,SE,134,0.0,1.0,96,0.00,,OVC055,0.04,0.00,VWS V14.01,2013-01-06 10:11:00,
2013-01-06 05:15:00,70.7,69.5,30.13,SE,134,0.0,1.0,96,0.00,,OVC050,0.04,0.00,VWS V14.01,2013-01-06 10:15:00,
2013-01-06 05:16:00,70.7,69.5,30.13,SE,134,1.0,1.0,96,0.00,,OVC055,0.04,0.00,VWS V14.01,2013-01-06 10:16:00,
2013-01-06 05:20:00,70.8,69.6,30.13,SE,134,1.0,1.0,96,0.00,,OVC050,0.04,0.00,VWS V14.01,2013-01-06 10:20:00,
2013-01-06 05:21:00,70.8,69.6,30.13,SE,134,1.0,1.0,96,0.00,,OVC055,0.04,0.00,VWS V14.01,2013-01-06 10:21:00,
2013-01-06 05:25:00,70.8,69.6,30.13,SE,134,1.0,2.0,96,0.00,,OVC050,0.04,0.00,VWS V14.01,2013-01-06 10:25:00,
2013-01-06 05:26:00,70.8,69.6,30.13,SE,134,1.0,2.0,96,0.00,,OVC055,0.04,0.00,VWS V14.01,2013-01-06 10:26:00,
2013-01-06 05:30:00,70.8,69.6,30.13,SE,134,0.0,2.0,96,0.00,,OVC050,0.04,0.00,VWS V14.01,2013-01-06 10:30:00,
2013-01-06 05:31:00,70.9,69.7,30.13,SE,134,1.0,2.0,96,0.00,,OVC055,0.04,0.00,VWS V14.01,2013-01-06 10:31:00,
2013-01-06 05:35:00,70.9,69.7,30.13,SE,134,1.0,2.0,96,0.00,,OVC050,0.04,0.00,VWS V14.01,2013-01-06 10:35:00,
2013-01-06 05:36:00,70.9,69.7,30.13,SE,134,1.0,1.0,96,0.00,,OVC065,0.04,0.00,VWS V14.01,2013-01-06 10:36:00,
2013-01-06 05:40:00,70.9,69.7,30.13,SE,134,1.0,2.0,96,0.00,,OVC050,0.04,0.00,VWS V14.01,2013-01-06 10:40:00,
2013-01-06 05:41:00,70.9,69.7,30.13,SE,134,1.0,2.0,96,0.00,,OVC065,0.04,0.00,VWS V14.01,2013-01-06 10:41:00,
2013-01-06 05:45:00,70.9,69.7,30.13,ESE,107,2.0,2.0,96,0.00,,OVC050,0.04,0.00,VWS V14.01,2013-01-06 10:45:00,
2013-01-06 05:46:00,70.9,69.7,30.13,East,82,1.0,2.0,96,0.00,,OVC065,0.04,0.00,VWS V14.01,2013-01-06 10:46:00,
2013-01-06 05:50:00,70.9,69.7,30.13,East,82,1.0,2.0,96,0.00,,OVC050,0.04,0.00,VWS V14.01,2013-01-06 10:50:00,
2013-01-06 05:51:00,70.9,69.7,30.13,East,82,0.0,1.0,96,0.00,,OVC065,0.04,0.00,VWS V14.01,2013-01-06 10:51:00,
2013-01-06 05:55:00,70.9,69.7,30.13,East,82,0.0,1.0,96,0.00,,OVC050,0.04,0.00,VWS V14.01,2013-01-06 10:55:00,
2013-01-06 05:56:00,70.9,69.7,30.13,East,82,0.0,1.0,96,0.00,,OVC065,0.04,0.00,VWS V14.01,2013-01-06 10:56:00,
2013-01-06 06:00:00,70.9,69.7,30.13,East,82,1.0,2.0,96,0.00,,OVC050,0.04,0.00,VWS V14.01,2013-01-06 11:00:00,
2013-01-06 06:01:00,70.9,69.7,30.13,East,82,0.0,2.0,96,0.00,,OVC065,0.04,0.00,VWS V14.01,2013-01-06 11:01:00,
2013-01-06 06:05:00,70.9,69.7,30.13,East,82,0.0,0.0,96,0.00,,OVC050,0.04,0.00,VWS V14.01,2013-01-06 11:05:00,
2013-01-06 06:06:00,70.9,69.7,30.13,East,82,0.0,0.0,96,0.00,,OVC065,0.04,0.00,VWS V14.01,2013-01-06 11:06:00,
2013-01-06 06:10:00,70.9,69.7,30.13,East,82,1.0,1.0,96,0.00,,OVC050,0.04,0.00,VWS V14.01,2013-01-06 11:10:00,
2013-01-06 06:11:00,70.9,69.7,30.13,East,82,0.0,1.0,96,0.00,,OVC065,0.04,0.00,VWS V14.01,2013-01-06 11:11:00,
2013-01-06 06:15:00,70.9,69.7,30.13,East,82,0.0,0.0,96,0.00,,OVC050,0.04,0.00,VWS V14.01,2013-01-06 11:15:00,
2013-01-06 06:16:00,70.9,69.7,30.13,East,82,0.0,0.0,96,0.00,,OVC065,0.04,0.00,VWS V14.01,2013-01-06 11:16:00,
2013-01-06 06:20:00,70.9,69.7,30.14,East,82,0.0,0.0,96,0.00,,OVC050,0.04,0.00,VWS V14.01,2013-01-06 11:20:00,
2013-01-06 06:21:00,70.8,69.6,30.14,East,82,0.0,0.0,96,0.00,,OVC065,0.04,0.00,VWS V14.01,2013-01-06 11:21:00,
2013-01-06 06:25:00,70.9,69.7,30.14,East,82,0.0,0.0,96,0.00,,OVC050,0.04,0.00,VWS V14.01,2013-01-06 11:25:00,
2013-01-06 06:26:00,70.9,69.7,30.14,East,82,0.0,0.0,96,0.00,,OVC065,0.04,0.00,VWS V14.01,2013-01-06 11:26:00,
2013-01-06 06:30:00,70.9,69.7,30.14,East,82,0.0,0.0,96,0.00,,OVC050,0.04,0.00,VWS V14.01,2013-01-06 11:30:00,
2013-01-06 06:31:00,70.9,69.7,30.14,East,82,1.0,1.0,96,0.00,,OVC065,0.04,0.00,VWS V14.01,2013-01-06 11:31:00,
2013-01-06 06:35:00,71.0,69.8,30.14,East,82,0.0,1.0,96,0.00,,OVC050,0.04,0.00,VWS V14.01,2013-01-06 11:35:00,
2013-01-06 06:36:00,71.0,70.1,30.14,East,82,0.0,0.0,97,0.00,,OVC080,0.04,0.00,VWS V14.01,2013-01-06 11:36:00,
2013-01-06 06:40:00,71.0,70.1,30.14,East,82,0.0,0.0,97,0.00,,OVC050,0.04,0.00,VWS V14.01,2013-01-06 11:40:00,
2013-01-06 06:41:00,71.0,70.1,30.14,East,82,0.0,0.0,97,0.00,,OVC080,0.04,0.00,VWS V14.01,2013-01-06 11:41:00,
2013-01-06 06:45:00,71.0,70.1,30.14,East,82,0.0,0.0,97,0.00,,OVC050,0.04,0.00,VWS V14.01,2013-01-06 11:45:00,
2013-01-06 06:46:00,71.0,70.1,30.14,East,82,0.0,0.0,97,0.00,,OVC080,0.04,0.00,VWS V14.01,2013-01-06 11:46:00,
2013-01-06 06:50:00,71.0,70.1,30.14,East,82,0.0,0.0,97,0.00,,OVC050,0.04,0.00,VWS V14.01,2013-01-06 11:50:00,
2013-01-06 06:51:00,70.9,69.7,30.14,East,82,0.0,0.0,96,0.00,,OVC080,0.04,0.00,VWS V14.01,2013-01-06 11:51:00,
2013-01-06 06:55:00,70.9,69.7,30.15,East,82,0.0,0.0,96,0.00,,OVC050,0.04,0.00,VWS V14.01,2013-01-06 11:55:00,
2013-01-06 06:56:00,70.9,69.7,30.15,East,82,0.0,0.0,96,0.00,,OVC080,0.04,0.00,VWS V14.01,2013-01-06 11:56:00,
2013-01-06 07:00:00,70.9,69.7,30.15,East,82,0.0,0.0,96,0.00,,OVC050,0.04,0.00,VWS V14.01,2013-01-06 12:00:00,
2013-01-06 07:01:00,70.8,69.6,30.15,East,82,0.0,0.0,96,0.00,,OVC080,0.04,0.00,VWS V14.01,2013-01-06 12:01:00,
2013-01-06 07:05:00,70.8,69.6,30.15,East,82,0.0,0.0,96,0.00,,OVC050,0.04,0.00,VWS V14.01,2013-01-06 12:05:00,
2013-01-06 07:06:00,70.9,69.7,30.15,East,82,1.0,1.0,96,0.00,,OVC080,0.04,0.00,VWS V14.01,2013-01-06 12:06:00,
2013-01-06 07:10:00,70.9,69.7,30.15,East,82,1.0,2.0,96,0.00,,OVC050,0.04,0.00,VWS V14.01,2013-01-06 12:10:00,
2013-01-06 07:11:00,70.9,69.7,30.15,East,82,1.0,2.0,96,0.00,,OVC080,0.04,0.00,VWS V14.01,2013-01-06 12:11:00,
2013-01-06 07:15:00,70.9,69.7,30.15,East,82,0.0,0.0,96,0.00,,OVC050,0.04,0.00,VWS V14.01,2013-01-06 12:15:00,
2013-01-06 07:16:00,70.9,69.7,30.15,East,82,0.0,0.0,96,0.00,,OVC080,0.04,5.00,VWS V14.01,2013-01-06 12:16:00,
2013-01-06 07:20:00,70.9,69.7,30.15,East,82,0.0,0.0,96,0.00,,OVC050,0.04,7.00,VWS V14.01,2013-01-06 12:20:00,
2013-01-06 07:21:00,70.9,69.7,30.15,East,82,0.0,0.0,96,0.00,,OVC080,0.04,9.00,VWS V14.01,2013-01-06 12:21:00,
2013-01-06 07:25:00,71.0,69.8,30.16,East,82,0.0,0.0,96,0.00,,OVC050,0.04,12.00,VWS V14.01,2013-01-06 12:25:00,
2013-01-06 07:26:00,71.0,70.1,30.16,East,82,0.0,0.0,97,0.00,,OVC080,0.04,16.00,VWS V14.01,2013-01-06 12:26:00,
2013-01-06 07:30:00,71.1,70.2,30.16,East,82,0.0,0.0,97,0.00,,OVC050,0.04,23.00,VWS V14.01,2013-01-06 12:30:00,
2013-01-06 07:31:00,71.1,70.2,30.16,East,82,0.0,0.0,97,0.00,,OVC080,0.04,30.00,VWS V14.01,2013-01-06 12:31:00,
2013-01-06 07:35:00,71.2,70.3,30.16,East,82,0.0,0.0,97,0.00,,OVC050,0.04,37.00,VWS V14.01,2013-01-06 12:35:00,
2013-01-06 07:36:00,71.2,70.3,30.16,East,82,0.0,0.0,97,0.00,,OVC080,0.04,40.00,VWS V14.01,2013-01-06 12:36:00,
2013-01-06 07:40:00,71.3,70.4,30.16,East,82,0.0,1.0,97,0.00,,OVC050,0.04,46.00,VWS V14.01,2013-01-06 12:40:00,
2013-01-06 07:41:00,71.4,70.5,30.16,East,82,0.0,0.0,97,0.00,,OVC080,0.04,49.00,VWS V14.01,2013-01-06 12:41:00,
2013-01-06 07:45:00,71.5,70.6,30.16,East,82,1.0,1.0,97,0.00,,OVC050,0.04,39.00,VWS V14.01,2013-01-06 12:45:00,
2013-01-06 07:46:00,71.5,70.6,30.16,East,101,3.0,3.0,97,0.00,,OVC080,0.04,37.00,VWS V14.01,2013-01-06 12:46:00,
2013-01-06 07:50:00,71.6,70.7,30.16,ESE,104,0.0,1.0,97,0.00,,OVC050,0.04,40.00,VWS V14.01,2013-01-06 12:50:00,
2013-01-06 07:51:00,71.6,70.7,30.16,ESE,104,1.0,1.0,97,0.00,,OVC080,0.04,44.00,VWS V14.01,2013-01-06 12:51:00,
2013-01-06 07:55:00,71.7,70.8,30.16,ESE,104,0.0,0.0,97,0.00,,OVC050,0.04,46.00,VWS V14.01,2013-01-06 12:55:00,
2013-01-06 07:56:00,71.7,70.8,30.16,ESE,103,2.0,3.0,97,0.00,,OVC080,0.04,44.00,VWS V14.01,2013-01-06 12:56:00,
2013-01-06 08:00:00,71.8,70.9,30.16,ESE,105,1.0,3.0,97,0.00,,OVC050,0.04,47.00,VWS V14.01,2013-01-06 13:00:00,
2013-01-06 08:01:00,71.9,71.0,30.16,SE,138,3.0,3.0,97,0.00,,OVC080,0.04,44.00,VWS V14.01,2013-01-06 13:01:00,
2013-01-06 08:05:00,71.9,71.0,30.16,SE,138,0.0,2.0,97,0.00,,OVC050,0.04,39.00,VWS V14.01,2013-01-06 13:05:00,
2013-01-06 08:06:00,71.9,71.0,30.16,SE,138,1.0,1.0,97,0.00,,OVC080,0.04,42.00,VWS V14.01,2013-01-06 13:06:00,
2013-01-06 08:10:00,72.0,71.1,30.17,SSE,148,2.0,4.0,97,0.00,,OVC050,0.04,58.00,VWS V14.01,2013-01-06 13:10:00,
2013-01-06 08:11:00,72.0,71.1,30.17,SSE,149,1.0,2.0,97,0.00,,OVC080,0.04,40.00,VWS V14.01,2013-01-06 13:11:00,
2013-01-06 08:15:00,72.1,70.9,30.17,SSE,149,1.0,2.0,96,0.00,,OVC050,0.04,44.00,VWS V14.01,2013-01-06 13:15:00,
2013-01-06 08:16:00,72.1,70.9,30.17,SSE,149,1.0,2.0,96,0.00,,OVC080,0.04,47.00,VWS V14.01,2013-01-06 13:16:00,
2013-01-06 08:20:00,72.1,70.9,30.17,SSE,148,2.0,2.0,96,0.00,,OVC050,0.04,67.00,VWS V14.01,2013-01-06 13:20:00,
2013-01-06 08:21:00,72.2,71.0,30.17,SSE,148,1.0,3.0,96,0.00,,OVC080,0.04,109.00,VWS V14.01,2013-01-06 13:21:00,
2013-01-06 08:25:00,72.4,71.2,30.17,SSE,148,1.0,3.0,96,0.00,,OVC050,0.04,176.00,VWS V14.01,2013-01-06 13:25:00,
2013-01-06 08:26:00,72.5,71.3,30.17,SE,146,2.0,4.0,96,0.00,,OVC080,0.04,188.00,VWS V14.01,2013-01-06 13:26:00,
2013-01-06 08:30:00,72.8,71.6,30.17,SE,131,1.0,4.0,96,0.00,,OVC050,0.04,181.00,VWS V14.01,2013-01-06 13:30:00,
2013-01-06 08:31:00,73.0,71.8,30.17,SE,132,2.0,3.0,96,0.00,,OVC080,0.04,200.00,VWS V14.01,2013-01-06 13:31:00,
2013-01-06 08:35:00,73.3,71.8,30.17,SE,132,1.0,2.0,95,0.00,,OVC050,0.04,195.00,VWS V14.01,2013-01-06 13:35:00,
2013-01-06 08:36:00,73.5,72.0,30.17,SE,143,2.0,3.0,95,0.00,,OVC080,0.04,223.00,VWS V14.01,2013-01-06 13:36:00,
2013-01-06 08:40:00,73.8,72.0,30.17,SSE,152,3.0,3.0,94,0.00,,OVC050,0.04,229.00,VWS V14.01,2013-01-06 13:40:00,
2013-01-06 08:41:00,74.0,72.2,30.17,SSE,155,2.0,3.0,94,0.00,,BKN080,0.04,232.00,VWS V14.01,2013-01-06 13:41:00,
2013-01-06 08:45:00,74.3,71.8,30.17,SSE,150,3.0,4.0,92,0.00,,OVC050,0.04,248.00,VWS V14.01,2013-01-06 13:45:00,
2013-01-06 08:46:00,74.5,72.0,30.17,SE,137,2.0,4.0,92,0.00,,BKN080,0.04,255.00,VWS V14.01,2013-01-06 13:46:00,
2013-01-06 08:50:00,74.7,71.9,30.17,SSE,148,4.0,4.0,91,0.00,,OVC050,0.04,274.00,VWS V14.01,2013-01-06 13:50:00,
2013-01-06 08:51:00,74.9,71.8,30.17,SE,146,3.0,4.0,90,0.00,,BKN080,0.04,281.00,VWS V14.01,2013-01-06 13:51:00,
2013-01-06 08:55:00,75.3,71.8,30.17,SSE,162,4.0,6.0,89,0.00,,OVC050,0.04,290.00,VWS V14.01,2013-01-06 13:55:00,
2013-01-06 08:56:00,75.5,72.0,30.17,SSE,150,2.0,3.0,89,0.00,,BKN080,0.04,294.00,VWS V14.01,2013-01-06 13:56:00,
2013-01-06 09:00:00,75.7,71.9,30.17,SE,139,4.0,4.0,88,0.00,,OVC050,0.04,302.00,VWS V14.01,2013-01-06 14:00:00,
2013-01-06 09:01:00,75.9,72.1,30.17,SE,142,3.0,5.0,88,0.00,,BKN080,0.04,308.00,VWS V14.01,2013-01-06 14:01:00,
2013-01-06 09:05:00,76.1,71.9,30.17,South,180,4.0,4.0,87,0.00,,OVC050,0.04,323.00,VWS V14.01,2013-01-06 14:05:00,
2013-01-06 09:06:00,76.2,72.1,30.17,SSE,163,5.0,5.0,87,0.00,,BKN080,0.04,315.00,VWS V14.01,2013-01-06 14:06:00,
2013-01-06 09:10:00,76.4,71.9,30.18,South,175,5.0,6.0,86,0.00,,OVC050,0.04,341.00,VWS V14.01,2013-01-06 14:10:00,
2013-01-06 09:11:00,76.4,71.9,30.18,SSE,153,2.0,5.0,86,0.00,,BKN080,0.04,376.00,VWS V14.01,2013-01-06 14:11:00,
2013-01-06 09:15:00,76.5,71.7,30.18,ESE,110,3.0,6.0,85,0.00,,OVC050,0.04,188.00,VWS V14.01,2013-01-06 14:15:00,
2013-01-06 09:16:00,76.5,72.0,30.18,SSE,167,3.0,4.0,86,0.00,,BKN080,0.04,230.00,VWS V14.01,2013-01-06 14:16:00,
2013-01-06 09:20:00,76.4,71.9,30.18,SE,133,3.0,5.0,86,0.00,,OVC050,0.04,93.00,VWS V14.01,2013-01-06 14:20:00,
2013-01-06 09:21:00,76.3,71.8,30.18,SE,136,5.0,5.0,86,0.00,,BKN080,0.04,97.00,VWS V14.01,2013-01-06 14:21:00,
2013-01-06 09:25:00,76.4,71.9,30.18,SE,133,5.0,5.0,86,0.00,,OVC050,0.04,341.00,VWS V14.01,2013-01-06 14:25:00,
2013-01-06 09:26:00,76.5,72.0,30.18,South,169,3.0,5.0,86,0.00,,BKN080,0.04,508.00,VWS V14.01,2013-01-06 14:26:00,
2013-01-06 09:30:00,76.7,71.9,30.18,ESE,108,2.0,3.0,85,0.00,,OVC050,0.04,188.00,VWS V14.01,2013-01-06 14:30:00,
2013-01-06 09:31:00,76.8,71.9,30.18,ESE,118,3.0,4.0,85,0.00,,BKN080,0.04,229.00,VWS V14.01,2013-01-06 14:31:00,
2013-01-06 09:35:00,76.8,71.6,30.18,SE,140,4.0,7.0,84,0.00,,OVC050,0.04,209.00,VWS V14.01,2013-01-06 14:35:00,
2013-01-06 09:36:00,76.9,71.7,30.18,SE,127,2.0,9.0,84,0.00,,BKN080,0.04,519.00,VWS V14.01,2013-01-06 14:36:00,
2013-01-06 09:40:00,77.2,72.0,30.18,East,88,5.0,7.0,84,0.00,,OVC050,0.04,506.00,VWS V14.01,2013-01-06 14:40:00,
2013-01-06 09:41:00,77.3,71.4,30.18,SSE,154,4.0,10.0,82,0.00,,CLR,0.04,506.00,VWS V14.01,2013-01-06 14:41:00,
2013-01-06 09:45:00,77.6,71.7,30.18,SE,144,2.0,7.0,82,0.00,,OVC050,0.04,543.00,VWS V14.01,2013-01-06 14:45:00,
2013-01-06 09:46:00,77.8,71.9,30.18,ESE,107,2.0,8.0,82,0.00,,CLR,0.04,557.00,VWS V14.01,2013-01-06 14:46:00,
2013-01-06 09:50:00,78.1,71.8,30.18,SE,140,5.0,8.0,81,0.00,,OVC050,0.04,534.00,VWS V14.01,2013-01-06 14:50:00,
2013-01-06 09:51:00,78.3,71.6,30.18,SSE,153,2.0,9.0,80,0.00,,BKN025,0.04,555.00,VWS V14.01,2013-01-06 14:51:00,
2013-01-06 09:55:00,78.5,71.8,30.18,SSE,152,4.0,8.0,80,0.00,,OVC050,0.04,490.00,VWS V14.01,2013-01-06 14:55:00,
2013-01-06 09:56:00,78.7,71.6,30.18,SSW,192,4.0,7.0,79,0.00,,BKN025,0.04,527.00,VWS V14.01,2013-01-06 14:56:00,
2013-01-06 10:00:00,78.9,71.5,30.18,SE,131,4.0,9.0,78,0.00,,OVC050,0.04,557.00,VWS V14.01,2013-01-06 15:00:00,
2013-01-06 10:01:00,78.8,71.7,30.18,ESE,111,4.0,8.0,79,0.00,,BKN025,0.04,536.00,VWS V14.01,2013-01-06 15:01:00,
2013-01-06 10:05:00,78.9,71.8,30.17,SSE,153,6.0,8.0,79,0.00,,OVC050,0.04,577.00,VWS V14.01,2013-01-06 15:05:00,
2013-01-06 10:06:00,78.9,71.8,30.17,SE,144,5.0,11.0,79,0.00,,BKN025,0.04,464.00,VWS V14.01,2013-01-06 15:06:00,
2013-01-06 10:10:00,78.8,71.4,30.17,ESE,115,3.0,7.0,78,0.00,,OVC050,0.04,181.00,VWS V14.01,2013-01-06 15:10:00,
2013-01-06 10:11:00,78.7,71.3,30.17,ESE,123,3.0,8.0,78,0.00,,BKN025,0.04,181.00,VWS V14.01,2013-01-06 15:11:00,
2013-01-06 10:15:00,78.9,71.8,30.17,SSE,148,4.0,7.0,79,0.00,,OVC050,0.04,559.00,VWS V14.01,2013-01-06 15:15:00,
2013-01-06 10:16:00,79.1,71.7,30.17,SE,139,4.0,12.0,78,0.00,,BKN025,0.04,555.00,VWS V14.01,2013-01-06 15:16:00,
2013-01-06 10:20:00,79.1,70.9,30.17,SSE,163,3.0,12.0,76,0.00,,OVC050,0.04,144.00,VWS V14.01,2013-01-06 15:20:00,
2013-01-06 10:21:00,78.9,70.7,30.17,SE,138,10.0,11.0,76,0.00,,BKN025,0.04,144.00,VWS V14.01,2013-01-06 15:21:00,
2013-01-06 10:25:00,78.5,70.7,30.17,SSW,207,7.0,10.0,77,0.00,,OVC050,0.04,156.00,VWS V14.01,2013-01-06 15:25:00,
2013-01-06 10:26:00,78.4,70.6,30.17,SSE,160,4.0,7.0,77,0.00,,BKN025,0.04,188.00,VWS V14.01,2013-01-06 15:26:00,
2013-01-06 10:30:00,78.4,70.6,30.17,SE,134,3.0,9.0,77,0.00,,OVC050,0.04,279.00,VWS V14.01,2013-01-06 15:30:00,
2013-01-06 10:31:00,78.4,70.6,30.17,ESE,113,2.0,8.0,77,0.00,,BKN025,0.04,223.00,VWS V14.01,2013-01-06 15:31:00,
2013-01-06 10:35:00,78.5,70.7,30.17,SE,138,6.0,9.0,77,0.00,,OVC050,0.04,726.00,VWS V14.01,2013-01-06 15:35:00,
2013-01-06 10:36:00,78.6,70.8,30.17,ESE,116,3.0,10.0,77,0.00,,BKN025,0.04,522.00,VWS V14.01,2013-01-06 15:36:00,
2013-01-06 10:40:00,78.7,70.5,30.17,SE,129,4.0,12.0,76,0.00,,OVC050,0.04,269.00,VWS V14.01,2013-01-06 15:40:00,
2013-01-06 10:41:00,78.6,70.4,30.17,ESE,107,2.0,5.0,76,0.00,,SCT021,0.04,274.00,VWS V14.01,2013-01-06 15:41:00,
2013-01-06 10:45:00,78.7,70.5,30.17,SSE,166,6.0,7.0,76,0.00,,OVC050,0.04,195.00,VWS V14.01,2013-01-06 15:45:00,
2013-01-06 10:46:00,78.6,70.4,30.16,SSE,153,7.0,8.0,76,0.00,,SCT021,0.04,243.00,VWS V14.01,2013-01-06 15:46:00,
2013-01-06 10:50:00,78.5,71.1,30.16,SE,141,4.0,8.0,78,0.00,,OVC050,0.04,775.00,VWS V14.01,2013-01-06 15:50:00,
2013-01-06 10:51:00,78.8,71.0,30.16,SSE,147,7.0,10.0,77,0.00,,SCT021,0.04,770.00,VWS V14.01,2013-01-06 15:51:00,
2013-01-06 10:55:00,79.0,71.2,30.16,SSE,157,8.0,9.0,77,0.00,,OVC050,0.04,290.00,VWS V14.01,2013-01-06 15:55:00,
2013-01-06 10:56:00,79.1,71.3,30.16,SE,126,3.0,8.0,77,0.00,,SCT021,0.04,290.00,VWS V14.01,2013-01-06 15:56:00,
2013-01-06 11:00:00,79.5,70.9,30.16,South,178,6.0,11.0,75,0.00,,OVC050,0.04,264.00,VWS V14.01,2013-01-06 16:00:00,
2013-01-06 11:01:00,79.5,70.5,30.16,ESE,117,3.0,9.0,74,0.00,,SCT021,0.04,290.00,VWS V14.01,2013-01-06 16:01:00,
2013-01-06 11:05:00,79.6,71.0,30.16,SE,142,3.0,8.0,75,0.00,,OVC050,0.04,290.00,VWS V14.01,2013-01-06 16:05:00,
2013-01-06 11:06:00,79.5,71.3,30.16,SSE,155,5.0,9.0,76,0.00,,SCT021,0.04,260.00,VWS V14.01,2013-01-06 16:06:00,
2013-01-06 11:10:00,79.0,70.4,30.15,South,179,6.0,8.0,75,0.00,,OVC050,0.04,220.00,VWS V14.01,2013-01-06 16:10:00,
2013-01-06 11:11:00,78.9,70.7,30.16,ESE,121,2.0,6.0,76,0.00,,SCT021,0.04,234.00,VWS V14.01,2013-01-06 16:11:00,
2013-01-06 11:15:00,78.8,71.0,30.15,SE,126,4.0,11.0,77,0.00,,OVC050,0.04,248.00,VWS V14.01,2013-01-06 16:15:00,
2013-01-06 11:16:00,78.7,70.5,30.15,ESE,107,4.0,11.0,76,0.00,,SCT021,0.04,267.00,VWS V14.01,2013-01-06 16:16:00,
2013-01-06 11:20:00,78.7,70.9,30.15,SE,137,4.0,9.0,77,0.00,,OVC050,0.04,251.00,VWS V14.01,2013-01-06 16:20:00,
2013-01-06 11:21:00,78.8,71.0,30.15,ESE,123,3.0,7.0,77,0.00,,SCT021,0.04,237.00,VWS V14.01,2013-01-06 16:21:00,
2013-01-06 11:25:00,78.8,71.0,30.15,SSE,150,7.0,10.0,77,0.00,,OVC050,0.04,255.00,VWS V14.01,2013-01-06 16:25:00,
2013-01-06 11:26:00,78.7,70.9,30.15,SSE,150,5.0,7.0,77,0.00,,SCT021,0.04,239.00,VWS V14.01,2013-01-06 16:26:00,
2013-01-06 11:30:00,78.7,71.3,30.15,SSE,163,2.0,7.0,78,0.00,,OVC050,0.04,234.00,VWS V14.01,2013-01-06 16:30:00,
2013-01-06 11:31:00,78.9,71.1,30.15,South,180,6.0,11.0,77,0.00,,SCT021,0.04,234.00,VWS V14.01,2013-01-06 16:31:00,
2013-01-06 11:35:00,79.3,71.1,30.15,SSE,157,8.0,9.0,76,0.00,,OVC050,0.04,234.00,VWS V14.01,2013-01-06 16:35:00,
2013-01-06 11:36:00,79.4,70.8,30.15,SSE,164,3.0,9.0,75,0.00,,SCT021,0.04,181.00,VWS V14.01,2013-01-06 16:36:00,
2013-01-06 11:40:00,79.2,71.0,30.15,SSE,160,5.0,7.0,76,0.00,,OVC050,0.04,204.00,VWS V14.01,2013-01-06 16:40:00,
2013-01-06 11:41:00,79.3,71.5,30.15,ESE,109,3.0,11.0,77,0.00,,BKN039,0.04,856.00,VWS V14.01,2013-01-06 16:41:00,
2013-01-06 11:45:00,80.0,71.8,30.15,SSE,150,5.0,9.0,76,0.00,,OVC050,0.04,167.00,VWS V14.01,2013-01-06 16:45:00,
2013-01-06 11:46:00,80.0,71.4,30.14,SSE,157,4.0,8.0,75,0.00,,BKN039,0.04,167.00,VWS V14.01,2013-01-06 16:46:00,
2013-01-06 11:50:00,79.4,70.8,30.14,SE,130,4.0,10.0,75,0.00,,OVC050,0.04,183.00,VWS V14.01,2013-01-06 16:50:00,
2013-01-06 11:51:00,79.3,71.5,30.14,SE,132,4.0,7.0,77,0.00,,BKN039,0.04,174.00,VWS V14.01,2013-01-06 16:51:00,
2013-01-06 11:55:00,79.1,71.7,30.14,SSE,157,4.0,7.0,78,0.00,,OVC050,0.04,206.00,VWS V14.01,2013-01-06 16:55:00,
2013-01-06 11:56:00,79.3,71.5,30.14,South,171,5.0,9.0,77,0.00,,BKN039,0.04,193.00,VWS V14.01,2013-01-06 16:56:00,
2013-01-06 12:00:00,79.3,71.1,30.14,SE,124,3.0,7.0,76,0.00,,OVC050,0.04,255.00,VWS V14.01,2013-01-06 17:00:00,
2013-01-06 12:01:00,79.2,71.4,30.13,SSE,153,4.0,8.0,77,0.00,,BKN039,0.04,290.00,VWS V14.01,2013-01-06 17:01:00,
2013-01-06 12:05:00,79.7,71.9,30.13,SSE,147,5.0,7.0,77,0.00,,OVC050,0.04,879.00,VWS V14.01,2013-01-06 17:05:00,
2013-01-06 12:06:00,80.1,71.9,30.13,East,94,3.0,8.0,76,0.00,,BKN039,0.04,940.00,VWS V14.01,2013-01-06 17:06:00,
2013-01-06 12:10:00,81.0,72.3,30.13,NE,55,3.0,6.0,75,0.00,,OVC050,0.04,654.00,VWS V14.01,2013-01-06 17:10:00,
2013-01-06 12:11:00,81.5,72.8,30.13,SE,132,8.0,9.0,75,0.00,,BKN039,0.04,654.00,VWS V14.01,2013-01-06 17:11:00,
2013-01-06 12:15:00,81.5,71.6,30.13,SSE,155,7.0,9.0,72,0.00,,OVC050,0.04,733.00,VWS V14.01,2013-01-06 17:15:00,
2013-01-06 12:16:00,81.2,71.3,30.13,ESE,122,3.0,8.0,72,0.00,,BKN039,0.04,290.00,VWS V14.01,2013-01-06 17:16:00,
2013-01-06 12:20:00,80.7,72.0,30.13,SE,129,3.0,5.0,75,0.00,,OVC050,0.04,789.00,VWS V14.01,2013-01-06 17:20:00,
2013-01-06 12:21:00,80.7,72.0,30.13,SSE,167,2.0,8.0,75,0.00,,BKN039,0.04,789.00,VWS V14.01,2013-01-06 17:21:00,
2013-01-06 12:25:00,80.7,71.7,30.12,NNE,27,2.0,7.0,74,0.00,,OVC050,0.04,274.00,VWS V14.01,2013-01-06 17:25:00,
2013-01-06 12:26:00,80.5,71.8,30.12,SSE,155,4.0,6.0,75,0.00,,BKN039,0.04,274.00,VWS V14.01,2013-01-06 17:26:00,
2013-01-06 12:30:00,80.4,71.8,30.12,SE,134,6.0,11.0,75,0.00,,OVC050,0.04,265.00,VWS V14.01,2013-01-06 17:30:00,
2013-01-06 12:31:00,80.2,71.6,30.12,SE,136,4.0,7.0,75,0.00,,BKN039,0.04,232.00,VWS V14.01,2013-01-06 17:31:00,
2013-01-06 12:35:00,79.8,71.2,30.12,South,190,9.0,10.0,75,0.00,,OVC050,0.04,250.00,VWS V14.01,2013-01-06 17:35:00,
2013-01-06 12:36:00,79.6,71.0,30.12,SE,128,6.0,10.0,75,0.00,,BKN039,0.04,250.00,VWS V14.01,2013-01-06 17:36:00,
2013-01-06 12:40:00,79.5,71.7,30.11,South,170,7.0,9.0,77,0.00,,OVC050,0.04,216.00,VWS V14.01,2013-01-06 17:40:00,
2013-01-06 12:41:00,79.4,71.6,30.11,ESE,112,3.0,11.0,77,0.00,,BKN049,0.04,255.00,VWS V14.01,2013-01-06 17:41:00,
2013-01-06 12:45:00,79.2,71.0,30.11,NE,51,3.0,7.0,76,0.00,,OVC050,0.04,285.00,VWS V14.01,2013-01-06 17:45:00,
2013-01-06 12:46:00,79.5,72.0,30.11,SSE,165,5.0,7.0,78,0.00,,BKN049,0.04,921.00,VWS V14.01,2013-01-06 17:46:00,
2013-01-06 12:50:00,80.5,71.8,30.11,SE,136,3.0,7.0,75,0.00,,OVC050,0.04,856.00,VWS V14.01,2013-01-06 17:50:00,
2013-01-06 12:51:00,80.9,71.4,30.11,ESE,114,8.0,11.0,73,0.00,,BKN049,0.04,816.00,VWS V14.01,2013-01-06 17:51:00,
2013-01-06 12:55:00,81.3,70.6,30.11,SSE,153,4.0,10.0,70,0.00,,OVC050,0.04,802.00,VWS V14.01,2013-01-06 17:55:00,
2013-01-06 12:56:00,81.2,70.5,30.11,South,190,8.0,12.0,70,0.00,,BKN049,0.04,234.00,VWS V14.01,2013-01-06 17:56:00,
2013-01-06 13:00:00,80.7,70.0,30.11,SSE,149,6.0,12.0,70,0.00,,OVC050,0.04,262.00,VWS V14.01,2013-01-06 18:00:00,
2013-01-06 13:01:00,80.5,69.8,30.10,South,180,11.0,13.0,70,0.00,,BKN049,0.04,213.00,VWS V14.01,2013-01-06 18:01:00,
2013-01-06 13:05:00,80.1,69.9,30.10,South,171,11.0,12.0,71,0.00,,OVC050,0.04,793.00,VWS V14.01,2013-01-06 18:05:00,
2013-01-06 13:06:00,80.1,69.9,30.10,SE,132,10.0,11.0,71,0.00,,BKN049,0.04,190.00,VWS V14.01,2013-01-06 18:06:00,
2013-01-06 13:10:00,80.6,71.2,30.10,East,79,6.0,11.0,73,0.00,,OVC050,0.04,810.00,VWS V14.01,2013-01-06 18:10:00,
2013-01-06 13:11:00,80.9,71.0,30.10,SSE,157,5.0,8.0,72,0.00,,BKN049,0.04,817.00,VWS V14.01,2013-01-06 18:11:00,
2013-01-06 13:15:00,81.3,71.4,30.10,South,177,7.0,12.0,72,0.00,,OVC050,0.04,840.00,VWS V14.01,2013-01-06 18:15:00,
2013-01-06 13:16:00,81.4,71.5,30.09,SSE,161,6.0,11.0,72,0.00,,BKN049,0.04,814.00,VWS V14.01,2013-01-06 18:16:00,
2013-01-06 13:20:00,81.8,71.5,30.10,SE,132,10.0,10.0,71,0.00,,OVC050,0.04,814.00,VWS V14.01,2013-01-06 18:20:00,
2013-01-06 13:21:00,81.9,71.2,30.10,South,182,6.0,8.0,70,0.00,,BKN049,0.04,814.00,VWS V14.01,2013-01-06 18:21:00,
2013-01-06 13:25:00,81.5,70.8,30.10,SE,143,6.0,11.0,70,0.00,,OVC050,0.04,791.00,VWS V14.01,2013-01-06 18:25:00,
2013-01-06 13:26:00,81.5,70.8,30.09,SE,142,7.0,9.0,70,0.00,,BKN049,0.04,710.00,VWS V14.01,2013-01-06 18:26:00,
2013-01-06 13:30:00,81.6,70.9,30.09,SE,142,7.0,9.0,70,0.00,,OVC050,0.04,803.00,VWS V14.01,2013-01-06 18:30:00,
2013-01-06 13:31:00,81.6,70.9,30.09,South,181,5.0,10.0,70,0.00,,BKN049,0.04,803.00,VWS V14.01,2013-01-06 18:31:00,
2013-01-06 13:35:00,81.6,71.7,30.09,East,100,9.0,10.0,72,0.00,,OVC050,0.04,708.00,VWS V14.01,2013-01-06 18:35:00,
2013-01-06 13:36:00,81.6,71.7,30.09,SE,140,9.0,9.0,72,0.00,,BKN049,0.04,712.00,VWS V14.01,2013-01-06 18:36:00,
2013-01-06 13:40:00,81.3,70.6,30.09,SSW,192,7.0,11.0,70,0.00,,OVC050,0.04,200.00,VWS V14.01,2013-01-06 18:40:00,
2013-01-06 13:41:00,81.0,70.7,30.09,SSE,147,3.0,7.0,71,0.00,,BKN060,0.04,225.00,VWS V14.01,2013-01-06 18:41:00,
2013-01-06 13:45:00,80.6,70.8,30.09,ESE,108,8.0,10.0,72,0.00,,OVC050,0.04,262.00,VWS V14.01,2013-01-06 18:45:00,
2013-01-06 13:46:00,80.5,70.7,30.09,SSE,165,5.0,11.0,72,0.00,,BKN060,0.04,248.00,VWS V14.01,2013-01-06 18:46:00,
2013-01-06 13:50:00,80.3,71.3,30.09,ESE,113,4.0,13.0,74,0.00,,OVC050,0.04,246.00,VWS V14.01,2013-01-06 18:50:00,
2013-01-06 13:51:00,80.2,71.2,30.09,ESE,115,4.0,5.0,74,0.00,,BKN060,0.04,220.00,VWS V14.01,2013-01-06 18:51:00,
2013-01-06 13:55:00,80.0,71.0,30.09,SSW,209,6.0,11.0,74,0.00,,OVC050,0.04,174.00,VWS V14.01,2013-01-06 18:55:00,
2013-01-06 13:56:00,79.9,70.9,30.09,SE,144,2.0,9.0,74,0.00,,BKN060,0.04,204.00,VWS V14.01,2013-01-06 18:56:00,
2013-01-06 14:00:00,79.9,70.9,30.09,SSE,149,4.0,7.0,74,0.00,,OVC050,0.04,262.00,VWS V14.01,2013-01-06 19:00:00,
2013-01-06 14:01:00,79.9,70.9,30.09,SSE,147,4.0,5.0,74,0.00,,BKN060,0.04,200.00,VWS V14.01,2013-01-06 19:01:00,
2013-01-06 14:05:00,80.0,71.0,30.09,SE,142,5.0,9.0,74,0.00,,OVC050,0.04,274.00,VWS V14.01,2013-01-06 19:05:00,
2013-01-06 14:06:00,79.9,71.3,30.09,SE,144,7.0,8.0,75,0.00,,BKN060,0.04,346.00,VWS V14.01,2013-01-06 19:06:00,
2013-01-06 14:10:00,79.9,71.3,30.08,SSE,163,4.0,8.0,75,0.00,,OVC050,0.04,308.00,VWS V14.01,2013-01-06 19:10:00,
2013-01-06 14:11:00,80.0,71.0,30.08,South,171,6.0,10.0,74,0.00,,BKN060,0.04,343.00,VWS V14.01,2013-01-06 19:11:00,
2013-01-06 14:15:00,80.2,71.2,30.08,SSE,163,7.0,10.0,74,0.00,,OVC050,0.04,176.00,VWS V14.01,2013-01-06 19:15:00,
2013-01-06 14:16:00,80.2,71.2,30.08,South,171,12.0,12.0,74,0.00,,BKN060,0.04,176.00,VWS V14.01,2013-01-06 19:16:00,
2013-01-06 14:20:00,79.8,70.8,30.08,SE,132,5.0,10.0,74,0.00,,OVC050,0.04,171.00,VWS V14.01,2013-01-06 19:20:00,
2013-01-06 14:21:00,79.6,70.6,30.08,SSE,158,7.0,7.0,74,0.00,,BKN060,0.04,169.00,VWS V14.01,2013-01-06 19:21:00,
2013-01-06 14:25:00,79.3,70.7,30.08,SE,129,4.0,6.0,75,0.00,,OVC050,0.04,163.00,VWS V14.01,2013-01-06 19:25:00,
2013-01-06 14:26:00,79.2,70.6,30.08,South,173,8.0,8.0,75,0.00,,BKN060,0.04,209.00,VWS V14.01,2013-01-06 19:26:00,
2013-01-06 14:30:00,79.1,70.9,30.08,SSE,155,9.0,14.0,76,0.00,,OVC050,0.04,295.00,VWS V14.01,2013-01-06 19:30:00,
2013-01-06 14:31:00,79.2,71.0,30.08,SE,138,7.0,10.0,76,0.00,,BKN060,0.04,255.00,VWS V14.01,2013-01-06 19:31:00,
2013-01-06 14:35:00,79.5,71.7,30.08,SE,128,7.0,12.0,77,0.00,,OVC050,0.04,703.00,VWS V14.01,2013-01-06 19:35:00,
2013-01-06 14:36:00,79.7,71.5,30.08,South,176,5.0,8.0,76,0.00,,BKN060,0.04,698.00,VWS V14.01,2013-01-06 19:36:00,
2013-01-06 14:40:00,80.3,71.7,30.08,SE,133,4.0,10.0,75,0.00,,OVC050,0.04,290.00,VWS V14.01,2013-01-06 19:40:00,
2013-01-06 14:45:00,80.4,71.4,30.08,SSE,157,3.0,8.0,74,0.00,,OVC050,0.04,290.00,VWS V14.01,2013-01-06 19:45:00,
2013-01-06 14:46:00,80.3,71.7,30.08,South,170,7.0,9.0,75,0.00,,BKN037,0.04,290.00,VWS V14.01,2013-01-06 19:46:00,
2013-01-06 14:50:00,80.1,71.1,30.08,SSE,157,5.0,7.0,74,0.00,,OVC050,0.04,172.00,VWS V14.01,2013-01-06 19:50:00,
2013-01-06 14:51:00,80.0,71.4,30.08,SSE,157,6.0,6.0,75,0.00,,BKN037,0.04,171.00,VWS V14.01,2013-01-06 19:51:00,
2013-01-06 14:55:00,80.0,71.4,30.08,South,172,4.0,8.0,75,0.00,,OVC050,0.04,227.00,VWS V14.01,2013-01-06 19:55:00,
2013-01-06 14:56:00,80.1,71.1,30.08,SSW,198,7.0,8.0,74,0.00,,BKN037,0.04,262.00,VWS V14.01,2013-01-06 19:56:00,
2013-01-06 15:00:00,80.1,71.1,30.08,SE,143,3.0,7.0,74,0.00,,OVC050,0.04,237.00,VWS V14.01,2013-01-06 20:00:00,
2013-01-06 15:01:00,80.1,71.1,30.08,SE,144,3.0,5.0,74,0.00,,BKN037,0.04,287.00,VWS V14.01,2013-01-06 20:01:00,
2013-01-06 15:05:00,80.5,71.8,30.08,SE,140,7.0,7.0,75,0.00,,OVC050,0.04,649.00,VWS V14.01,2013-01-06 20:05:00,
2013-01-06 15:06:00,80.8,71.7,30.08,SE,143,5.0,10.0,74,0.00,,BKN037,0.04,281.00,VWS V14.01,2013-01-06 20:06:00,
2013-01-06 15:10:00,80.9,71.4,30.08,SSE,154,2.0,6.0,73,0.00,,OVC050,0.04,271.00,VWS V14.01,2013-01-06 20:10:00,
2013-01-06 15:11:00,80.9,71.4,30.08,ESE,118,3.0,8.0,73,0.00,,BKN037,0.04,306.00,VWS V14.01,2013-01-06 20:11:00,
2013-01-06 15:13:00,80.8,71.3,30.08,SSE,147,3.0,8.0,73,0.00,,BKN037,0.04,253.00,VWS V14.01,2013-01-06 20:13:00,
2013-01-06 15:15:00,80.6,70.8,30.08,SSE,152,4.0,8.0,72,0.00,,OVC050,0.04,236.00,VWS V14.01,2013-01-06 20:15:00,
2013-01-06 15:18:00,80.3,70.9,30.08,SSE,150,4.0,8.0,73,0.00,,BKN037,0.04,214.00,VWS V14.01,2013-01-06 20:18:00,
2013-01-06 15:20:00,80.2,70.8,30.08,South,173,4.0,8.0,73,0.00,,OVC050,0.04,209.00,VWS V14.01,2013-01-06 20:20:00,
2013-01-06 15:23:00,79.8,70.8,30.08,South,174,7.0,12.0,74,0.00,,BKN037,0.04,155.00,VWS V14.01,2013-01-06 20:23:00,
2013-01-06 15:25:00,79.7,71.1,30.08,SE,128,7.0,7.0,75,0.00,,OVC050,0.04,128.00,VWS V14.01,2013-01-06 20:25:00,
2013-01-06 15:28:00,79.6,71.4,30.08,SE,131,10.0,10.0,76,0.00,,BKN037,0.04,190.00,VWS V14.01,2013-01-06 20:28:00,
2013-01-06 15:30:00,79.6,70.6,30.08,SSE,167,11.0,12.0,74,0.00,,OVC050,0.04,457.00,VWS V14.01,2013-01-06 20:30:00,
2013-01-06 15:33:00,79.4,70.4,30.08,SSE,153,4.0,8.0,74,0.00,,BKN037,0.04,100.00,VWS V14.01,2013-01-06 20:33:00,
2013-01-06 15:35:00,79.3,70.3,30.08,SSW,194,5.0,9.0,74,0.00,,OVC050,0.04,137.00,VWS V14.01,2013-01-06 20:35:00,
2013-01-06 15:38:00,79.1,70.5,30.08,SE,140,5.0,8.0,75,0.00,,BKN037,0.04,137.00,VWS V14.01,2013-01-06 20:38:00,
2013-01-06 15:40:00,79.1,70.5,30.08,South,173,4.0,9.0,75,0.00,,OVC050,0.04,137.00,VWS V14.01,2013-01-06 20:40:00,
2013-01-06 15:43:00,79.1,70.9,30.08,SSE,158,8.0,8.0,76,0.00,,BKN037,0.04,160.00,VWS V14.01,2013-01-06 20:43:00,
2013-01-06 15:45:00,79.2,70.6,30.08,South,175,3.0,9.0,75,0.00,,OVC050,0.04,163.00,VWS V14.01,2013-01-06 20:45:00,
2013-01-06 15:48:00,79.2,70.6,30.08,SSW,193,3.0,8.0,75,0.00,,BKN037,0.04,113.00,VWS V14.01,2013-01-06 20:48:00,
2013-01-06 15:50:00,79.1,70.5,30.07,SE,134,6.0,7.0,75,0.00,,OVC050,0.04,141.00,VWS V14.01,2013-01-06 20:50:00,
2013-01-06 15:53:00,78.9,70.7,30.07,SSE,148,3.0,7.0,76,0.00,,SCT060,0.04,123.00,VWS V14.01,2013-01-06 20:53:00,
2013-01-06 15:55:00,78.9,70.7,30.07,ESE,117,3.0,5.0,76,0.00,,OVC050,0.04,97.00,VWS V14.01,2013-01-06 20:55:00,
2013-01-06 15:58:00,78.8,70.6,30.07,SSE,153,4.0,8.0,76,0.00,,SCT060,0.04,98.00,VWS V14.01,2013-01-06 20:58:00,
2013-01-06 16:00:00,78.7,70.5,30.08,SE,142,1.0,7.0,76,0.00,,SCT060,0.04,135.00,VWS V14.01,2013-01-06 21:00:00,
2013-01-06 16:05:00,78.7,70.9,30.08,SSE,157,5.0,9.0,77,0.00,,SCT060,0.04,116.00,VWS V14.01,2013-01-06 21:05:00,
2013-01-06 16:10:00,78.4,70.6,30.08,SSE,167,3.0,8.0,77,0.00,,SCT060,0.04,141.00,VWS V14.01,2013-01-06 21:10:00,
2013-01-06 16:15:00,78.3,70.9,30.08,SSE,148,4.0,5.0,78,0.00,,SCT060,0.04,139.00,VWS V14.01,2013-01-06 21:15:00,
2013-01-06 16:20:00,78.4,71.0,30.08,SE,132,4.0,9.0,78,0.00,,SCT060,0.04,248.00,VWS V14.01,2013-01-06 21:20:00,
2013-01-06 16:25:00,78.6,70.4,30.08,SE,126,10.0,10.0,76,0.00,,SCT060,0.04,295.00,VWS V14.01,2013-01-06 21:25:00,
2013-01-06 16:30:00,79.0,70.8,30.08,SE,126,8.0,9.0,76,0.00,,SCT060,0.04,265.00,VWS V14.01,2013-01-06 21:30:00,
2013-01-06 16:35:00,78.8,71.0,30.08,SSE,153,7.0,8.0,77,0.00,,SCT060,0.04,160.00,VWS V14.01,2013-01-06 21:35:00,
2013-01-06 16:40:00,78.5,71.1,30.08,SSW,196,6.0,9.0,78,0.00,,SCT060,0.04,165.00,VWS V14.01,2013-01-06 21:40:00,
2013-01-06 16:45:00,78.2,70.8,30.08,SSE,153,8.0,9.0,78,0.00,,FEW023,0.04,69.00,VWS V14.01,2013-01-06 21:45:00,
2013-01-06 16:50:00,77.9,70.5,30.08,SSE,162,8.0,10.0,78,0.00,,FEW023,0.04,69.00,VWS V14.01,2013-01-06 21:50:00,
2013-01-06 16:55:00,77.6,70.6,30.08,SSE,152,3.0,8.0,79,0.00,,FEW023,0.04,40.00,VWS V14.01,2013-01-06 21:55:00,
2013-01-06 17:00:00,77.4,70.4,30.08,SE,146,6.0,8.0,79,0.00,,FEW023,0.04,33.00,VWS V14.01,2013-01-06 22:00:00,
2013-01-06 17:05:00,77.2,70.6,30.08,SSE,155,2.0,7.0,80,0.00,,FEW023,0.04,28.00,VWS V14.01,2013-01-06 22:05:00,
2013-01-06 17:10:00,77.0,70.4,30.08,SSE,160,6.0,8.0,80,0.00,,FEW023,0.04,30.00,VWS V14.01,2013-01-06 22:10:00,
2013-01-06 17:15:00,76.9,70.3,30.08,SE,144,5.0,10.0,80,0.00,,FEW023,0.04,28.00,VWS V14.01,2013-01-06 22:15:00,
2013-01-06 17:20:00,76.7,70.1,30.08,SE,144,4.0,6.0,80,0.00,,FEW023,0.04,30.00,VWS V14.01,2013-01-06 22:20:00,
2013-01-06 17:25:00,76.7,70.1,30.08,SSE,151,4.0,10.0,80,0.00,,FEW023,0.04,28.00,VWS V14.01,2013-01-06 22:25:00,
2013-01-06 17:30:00,76.6,70.0,30.08,South,170,4.0,8.0,80,0.00,,FEW023,0.04,23.00,VWS V14.01,2013-01-06 22:30:00,
2013-01-06 17:35:00,76.5,69.9,30.08,SSE,167,2.0,6.0,80,0.00,,FEW023,0.04,12.00,VWS V14.01,2013-01-06 22:35:00,
2013-01-06 17:40:00,76.4,70.1,30.08,SSE,150,6.0,7.0,81,0.00,,FEW023,0.04,7.00,VWS V14.01,2013-01-06 22:40:00,
2013-01-06 17:45:00,76.3,70.1,30.08,SSE,163,4.0,5.0,81,0.00,,FEW037,0.04,0.00,VWS V14.01,2013-01-06 22:45:00,
2013-01-06 17:50:00,76.1,69.8,30.08,SSE,159,3.0,7.0,81,0.00,,FEW037,0.04,0.00,VWS V14.01,2013-01-06 22:50:00,
2013-01-06 17:55:00,76.0,69.8,30.08,SE,146,2.0,5.0,81,0.00,,FEW037,0.04,0.00,VWS V14.01,2013-01-06 22:55:00,
2013-01-06 18:00:00,75.8,69.9,30.08,South,182,1.0,8.0,82,0.00,,FEW037,0.04,0.00,VWS V14.01,2013-01-06 23:00:00,
2013-01-06 18:05:00,75.7,69.8,30.09,South,170,3.0,6.0,82,0.00,,FEW037,0.04,0.00,VWS V14.01,2013-01-06 23:05:00,
2013-01-06 18:10:00,75.6,69.7,30.09,South,173,3.0,5.0,82,0.00,,FEW037,0.04,0.00,VWS V14.01,2013-01-06 23:10:00,
2013-01-06 18:15:00,75.5,70.0,30.09,SE,144,2.0,5.0,83,0.00,,FEW037,0.04,0.00,VWS V14.01,2013-01-06 23:15:00,
2013-01-06 18:20:00,75.3,69.8,30.09,South,171,2.0,4.0,83,0.00,,FEW037,0.04,0.00,VWS V14.01,2013-01-06 23:20:00,
2013-01-06 18:25:00,75.2,69.7,30.09,South,172,2.0,3.0,83,0.00,,FEW037,0.04,0.00,VWS V14.01,2013-01-06 23:25:00,
2013-01-06 18:30:00,75.1,69.6,30.09,SSE,165,2.0,6.0,83,0.00,,FEW037,0.04,0.00,VWS V14.01,2013-01-06 23:30:00,
2013-01-06 18:35:00,74.9,69.7,30.09,ESE,122,1.0,3.0,84,0.00,,FEW037,0.04,0.00,VWS V14.01,2013-01-06 23:35:00,
2013-01-06 18:40:00,74.8,69.7,30.09,SSE,148,0.0,2.0,84,0.00,,FEW037,0.04,0.00,VWS V14.01,2013-01-06 23:40:00,
2013-01-06 18:45:00,74.6,69.8,30.09,SSE,163,1.0,3.0,85,0.00,,CLR,0.04,0.00,VWS V14.01,2013-01-06 23:45:00,
2013-01-06 18:50:00,74.5,69.7,30.10,SSE,163,0.0,0.0,85,0.00,,CLR,0.04,0.00,VWS V14.01,2013-01-06 23:50:00,
2013-01-06 18:55:00,74.3,69.5,30.10,SSE,163,0.0,2.0,85,0.00,,CLR,0.04,0.00,VWS V14.01,2013-01-06 23:55:00,
2013-01-06 19:00:00,74.2,69.8,30.10,SSE,163,0.0,1.0,86,0.00,,CLR,0.04,0.00,VWS V14.01,2013-01-07 00:00:00,
2013-01-06 19:05:00,73.9,69.4,30.10,SSE,163,0.0,0.0,86,0.00,,CLR,0.04,0.00,VWS V14.01,2013-01-07 00:05:00,
2013-01-06 19:10:00,73.7,69.6,30.10,SSE,163,0.0,1.0,87,0.00,,CLR,0.04,0.00,VWS V14.01,2013-01-07 00:10:00,
2013-01-06 19:15:00,73.5,69.4,30.10,SSE,163,1.0,2.0,87,0.00,,CLR,0.04,0.00,VWS V14.01,2013-01-07 00:15:00,
2013-01-06 19:20:00,73.5,69.4,30.11,SSE,163,1.0,2.0,87,0.00,,CLR,0.04,0.00,VWS V14.01,2013-01-07 00:20:00,
2013-01-06 19:25:00,73.4,69.6,30.11,SSE,163,2.0,2.0,88,0.00,,CLR,0.04,0.00,VWS V14.01,2013-01-07 00:25:00,
2013-01-06 19:30:00,73.4,69.6,30.11,SSE,163,0.0,1.0,88,0.00,,CLR,0.04,0.00,VWS V14.01,2013-01-07 00:30:00,
2013-01-06 19:35:00,73.4,69.6,30.11,SSE,163,1.0,2.0,88,0.00,,CLR,0.04,0.00,VWS V14.01,2013-01-07 00:35:00,
2013-01-06 19:40:00,73.3,69.5,30.11,SSE,163,1.0,2.0,88,0.00,,CLR,0.04,0.00,VWS V14.01,2013-01-07 00:40:00,
2013-01-06 19:45:00,73.1,69.3,30.11,SSE,163,0.0,0.0,88,0.00,,CLR,0.04,0.00,VWS V14.01,2013-01-07 00:45:00,
2013-01-06 19:50:00,72.9,69.1,30.12,SSE,163,0.0,0.0,88,0.00,,CLR,0.04,0.00,VWS V14.01,2013-01-07 00:50:00,
2013-01-06 19:55:00,72.8,69.4,30.12,SSE,163,0.0,0.0,89,0.00,,CLR,0.04,0.00,VWS V14.01,2013-01-07 00:55:00,
2013-01-06 20:00:00,72.6,69.2,30.12,SSE,163,0.0,0.0,89,0.00,,CLR,0.04,0.00,VWS V14.01,2013-01-07 01:00:00,
2013-01-06 20:05:00,72.5,69.1,30.12,SSE,163,0.0,0.0,89,0.00,,CLR,0.04,0.00,VWS V14.01,2013-01-07 01:05:00,
2013-01-06 20:10:00,72.2,68.8,30.12,SSE,163,0.0,0.0,89,0.00,,CLR,0.04,0.00,VWS V14.01,2013-01-07 01:10:00,
2013-01-06 20:15:00,72.0,68.9,30.12,SSE,163,0.0,0.0,90,0.00,,CLR,0.04,0.00,VWS V14.01,2013-01-07 01:15:00,
2013-01-06 20:20:00,71.8,68.7,30.12,SSE,163,0.0,0.0,90,0.00,,CLR,0.04,0.00,VWS V14.01,2013-01-07 01:20:00,
2013-01-06 20:25:00,71.6,68.5,30.12,SSE,163,0.0,0.0,90,0.00,,CLR,0.04,0.00,VWS V14.01,2013-01-07 01:25:00,
2013-01-06 20:30:00,71.4,68.6,30.12,SSE,163,0.0,0.0,91,0.00,,CLR,0.04,0.00,VWS V14.01,2013-01-07 01:30:00,
2013-01-06 20:35:00,71.3,68.5,30.12,SSE,163,0.0,0.0,91,0.00,,CLR,0.04,0.00,VWS V14.01,2013-01-07 01:35:00,
2013-01-06 20:40:00,71.2,68.4,30.12,SSE,163,0.0,0.0,91,0.00,,CLR,0.04,0.00,VWS V14.01,2013-01-07 01:40:00,
2013-01-06 20:45:00,71.0,68.2,30.12,SSE,163,0.0,0.0,91,0.00,,CLR,0.04,0.00,VWS V14.01,2013-01-07 01:45:00,
2013-01-06 20:50:00,71.0,68.6,30.12,SSE,163,0.0,0.0,92,0.00,,CLR,0.04,0.00,VWS V14.01,2013-01-07 01:50:00,
2013-01-06 20:55:00,70.9,68.5,30.12,SSE,163,0.0,0.0,92,0.00,,CLR,0.04,0.00,VWS V14.01,2013-01-07 01:55:00,
2013-01-06 21:00:00,70.7,68.3,30.13,SSE,163,0.0,0.0,92,0.00,,CLR,0.04,0.00,VWS V14.01,2013-01-07 02:00:00,
2013-01-06 21:05:00,70.6,68.2,30.12,SSE,163,0.0,0.0,92,0.00,,CLR,0.04,0.00,VWS V14.01,2013-01-07 02:05:00,
2013-01-06 21:10:00,70.4,68.3,30.13,SSE,163,0.0,0.0,93,0.00,,CLR,0.04,0.00,VWS V14.01,2013-01-07 02:10:00,
2013-01-06 21:15:00,70.3,68.2,30.13,SSE,163,0.0,0.0,93,0.00,,CLR,0.04,0.00,VWS V14.01,2013-01-07 02:15:00,
2013-01-06 21:20:00,70.2,68.1,30.13,SSE,163,0.0,0.0,93,0.00,,CLR,0.04,0.00,VWS V14.01,2013-01-07 02:20:00,
2013-01-06 21:25:00,70.0,67.9,30.13,SSE,163,0.0,0.0,93,0.00,,CLR,0.04,0.00,VWS V14.01,2013-01-07 02:25:00,
2013-01-06 21:30:00,69.9,67.8,30.12,SSE,163,0.0,0.0,93,0.00,,OVC050,0.04,0.00,VWS V14.01,2013-01-07 02:30:00,
2013-01-06 21:35:00,68.9,67.1,30.13,SSE,163,0.0,0.0,94,0.00,,CLR,0.04,0.00,VWS V14.01,2013-01-07 02:35:00,
2013-01-06 21:36:00,69.8,67.7,30.13,SSE,163,0.0,0.0,93,0.00,,CLR,0.04,0.00,VWS V14.01,2013-01-07 02:36:00,
2013-01-06 21:40:00,69.8,68.0,30.13,SSE,163,0.0,0.0,94,0.00,,OVC050,0.04,0.00,VWS V14.01,2013-01-07 02:40:00,
2013-01-06 21:41:00,69.7,67.6,30.13,SSE,163,0.0,0.0,93,0.00,,CLR,0.04,0.00,VWS V14.01,2013-01-07 02:41:00,
2013-01-06 21:45:00,69.6,67.8,30.13,SSE,163,0.0,0.0,94,0.00,,OVC050,0.04,0.00,VWS V14.01,2013-01-07 02:45:00,
2013-01-06 21:46:00,69.6,67.8,30.13,SSE,163,0.0,0.0,94,0.00,,CLR,0.04,0.00,VWS V14.01,2013-01-07 02:46:00,
2013-01-06 21:50:00,69.5,67.7,30.13,SSE,163,0.0,0.0,94,0.00,,OVC050,0.04,0.00,VWS V14.01,2013-01-07 02:50:00,
2013-01-06 21:51:00,69.5,67.7,30.13,SSE,163,0.0,0.0,94,0.00,,CLR,0.04,0.00,VWS V14.01,2013-01-07 02:51:00,
2013-01-06 21:55:00,69.5,67.7,30.13,SSE,163,0.0,0.0,94,0.00,,OVC050,0.04,0.00,VWS V14.01,2013-01-07 02:55:00,
2013-01-06 21:56:00,69.5,67.7,30.13,SSE,163,0.0,0.0,94,0.00,,CLR,0.04,0.00,VWS V14.01,2013-01-07 02:56:00,
2013-01-06 22:00:00,69.5,67.7,30.13,SSE,163,0.0,0.0,94,0.00,,OVC050,0.04,0.00,VWS V14.01,2013-01-07 03:00:00,
2013-01-06 22:01:00,69.5,67.7,30.13,SSE,163,0.0,0.0,94,0.00,,CLR,0.04,0.00,VWS V14.01,2013-01-07 03:01:00,
2013-01-06 22:05:00,69.4,67.6,30.13,SSE,163,0.0,0.0,94,0.00,,OVC050,0.04,0.00,VWS V14.01,2013-01-07 03:05:00,
2013-01-06 22:06:00,69.4,67.6,30.13,SSE,163,0.0,0.0,94,0.00,,CLR,0.04,0.00,VWS V14.01,2013-01-07 03:06:00,
2013-01-06 22:10:00,69.2,67.4,30.13,SSE,163,0.0,0.0,94,0.00,,OVC050,0.04,0.00,VWS V14.01,2013-01-07 03:10:00,
2013-01-06 22:11:00,69.2,67.4,30.13,SSE,163,0.0,0.0,94,0.00,,CLR,0.04,0.00,VWS V14.01,2013-01-07 03:11:00,
2013-01-06 22:15:00,69.1,67.3,30.13,SSE,163,0.0,0.0,94,0.00,,OVC050,0.04,0.00,VWS V14.01,2013-01-07 03:15:00,
2013-01-06 22:16:00,69.1,67.3,30.13,SSE,163,0.0,0.0,94,0.00,,CLR,0.04,0.00,VWS V14.01,2013-01-07 03:16:00,
2013-01-06 22:20:00,69.1,67.3,30.13,SSE,163,0.0,0.0,94,0.00,,OVC050,0.04,0.00,VWS V14.01,2013-01-07 03:20:00,
2013-01-06 22:21:00,69.1,67.3,30.13,SSE,163,0.0,0.0,94,0.00,,CLR,0.04,0.00,VWS V14.01,2013-01-07 03:21:00,
2013-01-06 22:25:00,69.1,67.3,30.13,SSE,163,0.0,0.0,94,0.00,,OVC050,0.04,0.00,VWS V14.01,2013-01-07 03:25:00,
2013-01-06 22:26:00,69.0,67.2,30.13,SSE,163,0.0,0.0,94,0.00,,CLR,0.04,0.00,VWS V14.01,2013-01-07 03:26:00,
2013-01-06 22:30:00,69.0,67.5,30.13,SSE,163,0.0,0.0,95,0.00,,OVC050,0.04,0.00,VWS V14.01,2013-01-07 03:30:00,
2013-01-06 22:31:00,69.0,67.5,30.13,SSE,163,0.0,0.0,95,0.00,,CLR,0.04,0.00,VWS V14.01,2013-01-07 03:31:00,
2013-01-06 22:35:00,68.9,67.1,30.13,SSE,163,0.0,0.0,94,0.00,,OVC050,0.04,0.00,VWS V14.01,2013-01-07 03:35:00,
2013-01-06 22:36:00,68.9,67.1,30.14,SSE,163,0.0,0.0,94,0.00,,CLR,0.04,0.00,VWS V14.01,2013-01-07 03:36:00,
2013-01-06 22:40:00,68.8,67.3,30.13,SSE,163,0.0,0.0,95,0.00,,OVC050,0.04,0.00,VWS V14.01,2013-01-07 03:40:00,
2013-01-06 22:41:00,68.8,67.3,30.13,SSE,163,0.0,0.0,95,0.00,,CLR,0.04,0.00,VWS V14.01,2013-01-07 03:41:00,
2013-01-06 22:45:00,68.7,67.2,30.13,SSE,163,0.0,0.0,95,0.00,,OVC050,0.04,0.00,VWS V14.01,2013-01-07 03:45:00,
2013-01-06 22:46:00,68.7,66.9,30.13,SSE,163,0.0,0.0,94,0.00,,CLR,0.04,0.00,VWS V14.01,2013-01-07 03:46:00,
2013-01-06 22:50:00,68.6,67.1,30.13,SSE,163,0.0,0.0,95,0.00,,OVC050,0.04,0.00,VWS V14.01,2013-01-07 03:50:00,
2013-01-06 22:51:00,68.6,67.1,30.13,SSE,163,0.0,0.0,95,0.00,,CLR,0.04,0.00,VWS V14.01,2013-01-07 03:51:00,
2013-01-06 22:55:00,68.5,67.0,30.13,SSE,163,0.0,0.0,95,0.00,,OVC050,0.04,0.00,VWS V14.01,2013-01-07 03:55:00,
2013-01-06 22:56:00,68.5,67.0,30.13,SSE,163,0.0,0.0,95,0.00,,CLR,0.04,0.00,VWS V14.01,2013-01-07 03:56:00,
2013-01-06 23:00:00,68.5,67.0,30.13,SSE,163,0.0,0.0,95,0.00,,OVC050,0.04,0.00,VWS V14.01,2013-01-07 04:00:00,
2013-01-06 23:01:00,68.5,67.0,30.13,SSE,163,0.0,0.0,95,0.00,,CLR,0.04,0.00,VWS V14.01,2013-01-07 04:01:00,
2013-01-06 23:05:00,68.4,66.9,30.13,SSE,163,0.0,0.0,95,0.00,,OVC050,0.04,0.00,VWS V14.01,2013-01-07 04:05:00,
2013-01-06 23:06:00,68.3,66.8,30.13,SSE,163,0.0,0.0,95,0.00,,CLR,0.04,0.00,VWS V14.01,2013-01-07 04:06:00,
2013-01-06 23:10:00,68.2,66.7,30.13,SSE,163,0.0,0.0,95,0.00,,CLR,0.04,0.00,VWS V14.01,2013-01-07 04:10:00,
2013-01-06 23:15:00,68.1,66.6,30.13,SSE,163,0.0,0.0,95,0.00,,CLR,0.04,0.00,VWS V14.01,2013-01-07 04:15:00,
2013-01-06 23:20:00,68.1,66.6,30.13,SSE,163,0.0,0.0,95,0.00,,CLR,0.04,0.00,VWS V14.01,2013-01-07 04:20:00,
2013-01-06 23:25:00,68.0,66.5,30.13,SSE,163,0.0,0.0,95,0.00,,CLR,0.04,0.00,VWS V14.01,2013-01-07 04:25:00,
2013-01-06 23:30:00,68.0,66.5,30.13,SSE,163,0.0,0.0,95,0.00,,CLR,0.04,0.00,VWS V14.01,2013-01-07 04:30:00,
2013-01-06 23:35:00,68.0,66.5,30.13,SSE,163,0.0,0.0,95,0.00,,CLR,0.04,0.00,VWS V14.01,2013-01-07 04:35:00,
2013-01-06 23:40:00,67.9,66.4,30.13,SSE,163,0.0,0.0,95,0.00,,CLR,0.04,0.00,VWS V14.01,2013-01-07 04:40:00,
2013-01-06 23:45:00,67.9,66.4,30.13,SSE,163,0.0,0.0,95,0.00,,CLR,0.04,0.00,VWS V14.01,2013-01-07 04:45:00,
2013-01-06 23:50:00,68.1,66.6,30.13,SSE,163,0.0,0.0,95,0.00,,CLR,0.04,0.00,VWS V14.01,2013-01-07 04:50:00,
2013-01-06 23:55:00,68.1,66.6,30.13,SSE,163,0.0,0.0,95,0.00,,CLR,0.04,0.00,VWS V14.01,2013-01-07 04:55:00,